Huvudsida
METAR-TAF:

METAR-TAF

Flygplatser :

Joensuu flygplats

Joensuu, Finland

latitud: 62-40N, longitud: 029-38E, höjd: 119 m

Aktuellt väderrapport

Denna rapport gjordes för 26 minuter sedan, klockan 15:20 UTC
Vind 6 kt från syd/sydost, varierande mellan sydost och syd
Temperatur 21°C
Fuktighet 56%
Tryck 1018 hPa
Sikt 10 km eller mer
Få moln på en höjd av 3400 ft
Brutna moln på en höjd av 25000 ft

METAR: EFJO 161520Z 16006KT 130V190 9999 FEW034 BKN250 21/12 Q1018

Tid: 18:46 (15:46 UTC)

Väderprognos

Denna rapport gjordes för 1 timme och 19 minuter sedan, klockan 14:27 UTC
Prognos gäller från 16 kl. 15 UTC till 16 kl. 23 UTC
Vind 6 kt från syd/sydost
Sikt 10 km eller mer
Få moln på en höjd av 3500 ft

TAF: EFJO 161427Z 1615/1623 15006KT 9999 FEW035

Aktuella väderrapporter och prognoser från 4000 flygplatser (METAR- och TAF-rapporter).

De tillgängliga stationerna syns som gula och röda prickar på kartan.

För musen över prickarna för att se namnen på stationerna.

Klicka sedan för att få väderrapporter och prognoser.

För att ändra kartan: Klicka på de gröna knapparna med ett svart kors på för att zooma in; den gröna knappen med ett streck på för att zooma ut; eller på de gröna pilarna för angränsande kartor.


METAR-TAF: